Des Peres, Missouri
Current Conditions -  °F | °C
As of 4:20 PM on Sunday 25 Jan 2015 (Local Time) from KSTL Reporting Station
Light Rain Light Rain  
Wind Chill: -3°   Ceiling: 700
Heat Index:   Visibility: 5mi
Dew Point:   Wind: 18mph
Humidity: 87%   Direction: 360°N
Pressure: 29.75"   Gusts: 26mph
Location:  38.5796°N, 90.4197°W
Report Text: KSTL 252220Z 36016G23KT 5SM -RA BR OVC007 03/01 A2975 RMK AO2 P0000
Loading
Personal Weather Stations






























Interactive Weather Map New forecast layout! Learn more

10-Day Weather Forecast

Advertisements
Track Severe Weather on mobile